Time;durP1;ratioP1;P1;durP2;ratioP2;P2;SDS_P1;SDS_P2;PMS_P1;PMS_P2;Temp;Humidity;BMP_temperature;BMP_pressure;BME280_temperature;BME280_humidity;BME280_pressure;Samples;Min_cycle;Max_cycle;Signal;HPM_P1;HPM_P2
2022/02/03 00:00:30;;;;;;;14.18;6.18;;;8.30;99.90;;;;;;5024422;28;20022;-70
2022/02/03 00:05:41;;;;;;;17.17;5.88;;;8.30;99.90;;;;;;5015722;28;20038;-71
2022/02/03 00:22:11;;;;;;;15.02;6.32;;;8.10;99.90;;;;;;5019022;28;20101;-69
2022/02/03 00:24:22;;;;;;;18.27;5.93;;;8.00;99.90;;;;;;5018378;28;20064;-69
2022/02/03 00:27:03;;;;;;;14.48;5.85;;;8.00;99.90;;;;;;5022250;28;20424;-69
2022/02/03 00:29:50;;;;;;;14.07;6.20;;;7.90;99.90;;;;;;5028447;28;20013;-72
2022/02/03 00:35:23;;;;;;;17.17;6.07;;;8.00;99.90;;;;;;5024340;28;20030;-69
2022/02/03 00:51:18;;;;;;;14.00;5.72;;;8.00;99.90;;;;;;5028882;28;20025;-69
2022/02/03 00:53:44;;;;;;;13.27;5.88;;;8.10;99.90;;;;;;5022292;28;20041;-68
2022/02/03 00:56:15;;;;;;;15.20;6.32;;;8.00;99.90;;;;;;5028380;28;20068;-69
2022/02/03 00:58:51;;;;;;;;;;;8.00;99.90;;;;;;5022569;28;20022;-69
2022/02/03 01:01:20;;;;;;;13.23;6.07;;;7.90;99.90;;;;;;5021926;28;19910;-69
2022/02/03 01:03:53;;;;;;;15.45;6.63;;;7.80;99.90;;;;;;5024735;28;20076;-69
2022/02/03 01:06:21;;;;;;;12.50;5.82;;;7.90;99.90;;;;;;5023935;28;20028;-69
2022/02/03 01:08:50;;;;;;;13.85;6.10;;;8.00;99.90;;;;;;5025689;28;20029;-70
2022/02/03 01:11:22;;;;;;;14.52;6.35;;;7.90;99.90;;;;;;5025599;28;20097;-70
2022/02/03 01:13:58;;;;;;;14.65;6.05;;;8.00;99.90;;;;;;5028946;28;20025;-70
2022/02/03 01:35:24;;;;;;;12.07;7.18;;;7.80;99.90;;;;;;5022788;28;20072;-69
2022/02/03 01:43:19;;;;;;;15.88;6.97;;;7.90;99.90;;;;;;5054387;28;20022;-70
2022/02/03 01:43:43;;;;;;;17.95;7.95;;;7.90;99.90;;;;;;5023553;28;20055;-68
2022/02/03 01:46:13;;;;;;;18.90;7.78;;;8.00;99.90;;;;;;5024866;28;20025;-71
2022/02/03 01:49:02;;;;;;;19.73;8.40;;;7.80;99.90;;;;;;5022545;28;20025;-69
2022/02/03 01:51:48;;;;;;;13.52;6.97;;;7.80;99.90;;;;;;5023496;28;20041;-70
2022/02/03 01:54:16;;;;;;;14.23;7.97;;;7.80;99.90;;;;;;5023321;28;20034;-68
2022/02/03 01:57:00;;;;;;;14.07;8.00;;;7.80;99.90;;;;;;5029303;28;20043;-69
2022/02/03 01:59:30;;;;;;;12.07;7.88;;;7.90;99.90;;;;;;5031470;28;20422;-70
2022/02/03 02:02:01;;;;;;;16.48;9.35;;;7.80;99.90;;;;;;5033401;28;20048;-70
2022/02/03 02:04:49;;;;;;;23.75;10.07;;;7.70;99.90;;;;;;5031503;28;20040;-69
2022/02/03 02:07:33;;;;;;;23.40;9.63;;;7.70;99.90;;;;;;5030720;28;20037;-70
2022/02/03 02:13:41;;;;;;;20.85;10.25;;;7.50;99.90;;;;;;5032760;28;20037;-70
2022/02/03 02:19:41;;;;;;;15.85;9.75;;;7.60;99.90;;;;;;5031787;28;20033;-68
2022/02/03 02:39:11;;;;;;;18.13;11.20;;;7.70;99.90;;;;;;5032258;28;20076;-72
2022/02/03 02:44:54;;;;;;;22.27;13.30;;;7.80;99.90;;;;;;5032321;28;20034;-70
2022/02/03 02:47:28;;;;;;;22.52;13.88;;;7.80;99.90;;;;;;5033357;28;20029;-69
2022/02/03 02:50:20;;;;;;;21.15;12.63;;;7.90;99.90;;;;;;5032631;28;20534;-70
2022/02/03 02:52:55;;;;;;;;;;;7.90;99.90;;;;;;5033761;28;20088;-69
2022/02/03 02:55:56;;;;;;;20.20;12.45;;;7.90;99.90;;;;;;5036123;28;19905;-70
2022/02/03 03:34:31;;;;;;;24.85;14.50;;;7.90;99.90;;;;;;5024797;28;20103;-69
2022/02/03 03:37:00;;;;;;;24.48;14.98;;;8.00;99.90;;;;;;5035477;28;20032;-69
2022/02/03 03:39:37;;;;;;;27.55;16.13;;;8.10;99.90;;;;;;5035799;28;20320;-69
2022/02/03 03:42:06;;;;;;;28.20;15.32;;;8.10;99.90;;;;;;5034898;28;20043;-70
2022/02/03 03:44:34;;;;;;;24.20;15.25;;;8.00;99.90;;;;;;5034416;28;20037;-68
2022/02/03 03:47:04;;;;;;;26.75;16.73;;;8.00;99.90;;;;;;5035255;28;20060;-69
2022/02/03 03:49:43;;;;;;;25.33;15.55;;;8.00;99.90;;;;;;5034555;28;20087;-69
2022/02/03 03:52:17;;;;;;;29.00;16.60;;;8.10;99.90;;;;;;5035039;28;20061;-70
2022/02/03 03:55:00;;;;;;;23.75;15.43;;;8.10;99.90;;;;;;5035299;28;20033;-68
2022/02/03 05:05:38;;;;;;;24.75;16.17;;;8.20;99.90;;;;;;5031397;28;20067;-68
2022/02/03 05:08:32;;;;;;;27.73;17.13;;;8.20;99.90;;;;;;5015755;28;20029;-69
2022/02/03 05:31:58;;;;;;;32.78;17.73;;;8.40;99.90;;;;;;4994199;28;20046;-69
2022/02/03 05:42:04;;;;;;;25.05;16.27;;;8.40;99.90;;;;;;4993452;28;20069;-70
2022/02/03 05:44:28;;;;;;;21.17;14.13;;;8.60;99.90;;;;;;4992396;28;20113;-70
2022/02/03 05:48:06;;;;;;;23.38;14.30;;;8.60;99.90;;;;;;4993200;28;20096;-69
2022/02/03 05:50:16;;;;;;;19.02;13.05;;;8.50;99.90;;;;;;4994254;28;20049;-71
2022/02/03 05:53:08;;;;;;;22.35;14.30;;;8.60;99.90;;;;;;5035209;28;20060;-69
2022/02/03 06:22:21;;;;;;;16.85;10.82;;;8.20;99.90;;;;;;5034070;28;20061;-70
2022/02/03 06:27:23;;;;;;;16.23;11.38;;;8.20;99.90;;;;;;5033218;28;20045;-69
2022/02/03 06:27:39;;;;;;;18.88;12.30;;;8.10;99.90;;;;;;5033759;28;20479;-69
2022/02/03 06:30:07;;;;;;;18.90;11.57;;;8.30;99.90;;;;;;5031508;28;20083;-68
2022/02/03 06:32:33;;;;;;;16.90;10.13;;;8.20;99.90;;;;;;5032034;28;20025;-68
2022/02/03 06:34:58;;;;;;;17.88;10.75;;;8.20;99.90;;;;;;5032523;28;20463;-69
2022/02/03 06:37:27;;;;;;;16.48;11.25;;;8.30;99.90;;;;;;5033180;28;20033;-68
2022/02/03 06:39:53;;;;;;;15.70;10.27;;;8.30;99.90;;;;;;5032658;28;20025;-69
2022/02/03 06:42:19;;;;;;;15.70;11.63;;;8.30;99.90;;;;;;5048773;28;20030;-72
2022/02/03 06:44:50;;;;;;;15.85;10.57;;;8.20;99.90;;;;;;5032894;28;20034;-68
2022/02/03 06:47:29;;;;;;;15.20;10.65;;;8.30;99.90;;;;;;5033623;28;20029;-70
2022/02/03 06:50:03;;;;;;;14.43;9.98;;;8.40;99.90;;;;;;5033153;28;20112;-70
2022/02/03 06:52:50;;;;;;;16.73;11.25;;;8.30;99.90;;;;;;5033735;28;20121;-68
2022/02/03 06:55:21;;;;;;;15.73;11.57;;;8.30;99.90;;;;;;5035026;28;20048;-71
2022/02/03 07:00:27;;;;;;;13.02;9.43;;;8.30;99.90;;;;;;5033732;28;20025;-69
2022/02/03 07:02:55;;;;;;;16.00;10.70;;;8.30;99.90;;;;;;5032579;28;20032;-70
2022/02/03 07:05:22;;;;;;;16.65;10.52;;;8.40;99.90;;;;;;5037202;28;20056;-70
2022/02/03 07:07:48;;;;;;;13.57;9.45;;;8.40;99.90;;;;;;5037147;28;20044;-70
2022/02/03 07:10:14;;;;;;;16.33;9.90;;;8.40;99.90;;;;;;5039197;28;20462;-69
2022/02/03 07:12:40;;;;;;;15.43;10.02;;;8.40;99.90;;;;;;5038879;28;20060;-69
2022/02/03 07:15:08;;;;;;;15.85;10.15;;;8.50;99.90;;;;;;5037930;28;20140;-70
2022/02/03 07:17:36;;;;;;;15.45;8.98;;;8.40;99.90;;;;;;5038733;28;20030;-71
2022/02/03 07:20:06;;;;;;;15.50;10.52;;;8.40;99.90;;;;;;5036021;28;20022;-71
2022/02/03 07:22:33;;;;;;;14.88;9.82;;;8.40;99.90;;;;;;5038676;28;20135;-69
2022/02/03 07:25:00;;;;;;;18.35;9.82;;;8.50;99.90;;;;;;5037845;28;20033;-70
2022/02/03 07:27:26;;;;;;;13.25;10.30;;;8.50;99.90;;;;;;5036362;28;20032;-74
2022/02/03 07:29:53;;;;;;;15.68;9.85;;;8.40;99.90;;;;;;5036349;28;20032;-71
2022/02/03 07:32:21;;;;;;;13.23;9.32;;;8.30;99.90;;;;;;5037937;28;20022;-70
2022/02/03 07:34:50;;;;;;;16.20;9.77;;;8.30;99.90;;;;;;5037259;28;20056;-68
2022/02/03 07:37:16;;;;;;;15.45;9.05;;;8.40;99.90;;;;;;5036647;28;20028;-70
2022/02/03 07:39:42;;;;;;;13.93;9.32;;;8.40;99.90;;;;;;5037619;28;20080;-70
2022/02/03 07:42:08;;;;;;;14.77;10.05;;;8.40;99.90;;;;;;5036725;28;20467;-70
2022/02/03 07:44:34;;;;;;;12.63;9.23;;;8.50;99.90;;;;;;5035808;28;20067;-69
2022/02/03 07:47:00;;;;;;;13.80;9.63;;;8.50;99.90;;;;;;5035999;28;20490;-70
2022/02/03 07:49:29;;;;;;;16.60;9.98;;;8.40;99.90;;;;;;5035217;28;20032;-71
2022/02/03 07:51:58;;;;;;;16.40;9.38;;;8.60;99.90;;;;;;5036090;28;20029;-70
2022/02/03 07:54:24;;;;;;;14.95;9.10;;;8.60;99.90;;;;;;5036580;28;20037;-71
2022/02/03 07:56:49;;;;;;;14.05;10.30;;;8.60;99.90;;;;;;5035025;28;20361;-69
2022/02/03 07:59:15;;;;;;;15.30;9.80;;;8.60;99.90;;;;;;5034183;28;20121;-70
2022/02/03 08:01:41;;;;;;;14.45;10.07;;;8.60;99.90;;;;;;5034643;28;20040;-69
2022/02/03 08:04:08;;;;;;;15.10;9.70;;;8.60;99.90;;;;;;5035013;28;20463;-70
2022/02/03 08:06:39;;;;;;;14.52;10.18;;;8.60;99.90;;;;;;5050753;28;20407;-69
2022/02/03 08:09:15;;;;;;;15.10;8.85;;;8.80;99.90;;;;;;5033245;28;20033;-70
2022/02/03 08:11:45;;;;;;;16.05;9.75;;;8.70;99.90;;;;;;5034378;28;20116;-69
2022/02/03 08:14:16;;;;;;;16.52;10.63;;;8.60;99.90;;;;;;5033986;28;20048;-69
2022/02/03 08:16:54;;;;;;;15.23;10.03;;;8.50;99.90;;;;;;5033913;28;20033;-69
2022/02/03 08:19:28;;;;;;;15.32;9.65;;;8.60;99.90;;;;;;5034502;28;20091;-69
2022/02/03 08:22:05;;;;;;;16.05;9.32;;;8.60;99.90;;;;;;5033629;28;20054;-70
2022/02/03 08:24:43;;;;;;;12.65;8.90;;;8.70;99.90;;;;;;5034293;28;20034;-69
2022/02/03 08:32:46;;;;;;;12.70;8.93;;;8.70;99.90;;;;;;5028185;28;20064;-68
2022/02/03 08:38:01;;;;;;;14.45;9.07;;;8.70;99.90;;;;;;5035388;28;20029;-69
2022/02/03 08:40:44;;;;;;;15.93;9.80;;;8.60;99.90;;;;;;5029910;28;20036;-68
2022/02/03 08:43:15;;;;;;;19.98;10.05;;;8.60;99.90;;;;;;5022625;28;20033;-71
2022/02/03 08:45:42;;;;;;;10.83;7.83;;;8.70;99.90;;;;;;5022754;28;20033;-70
2022/02/03 08:48:08;;;;;;;14.38;9.13;;;8.60;99.90;;;;;;5021893;28;20072;-71
2022/02/03 08:50:35;;;;;;;12.27;8.63;;;8.60;99.90;;;;;;5024403;28;20021;-70
2022/02/03 09:52:18;;;;;;;12.10;5.63;;;9.00;99.90;;;;;;5034932;28;20060;-72
2022/02/03 10:03:17;;;;;;;7.25;4.38;;;10.10;99.90;;;;;;4989051;28;20569;-62
2022/02/03 10:06:06;;;;;;;8.55;3.70;;;10.30;99.90;;;;;;5027695;28;20411;-62
2022/02/03 10:08:33;;;;;;;5.68;3.95;;;10.40;99.90;;;;;;5032658;28;20238;-58
2022/02/03 10:11:19;;;;;;;4.32;3.50;;;11.20;99.90;;;;;;5031874;28;20040;-59
2022/02/03 10:13:56;;;;;;;5.88;3.15;;;11.20;99.90;;;;;;5032334;28;20033;-61
2022/02/03 10:16:35;;;;;;;5.57;3.88;;;11.20;99.90;;;;;;5032533;28;20026;-58
2022/02/03 10:19:15;;;;;;;5.07;3.85;;;11.20;99.90;;;;;;5030767;28;20029;-68
2022/02/03 10:21:43;;;;;;;7.00;3.92;;;10.90;99.90;;;;;;5031926;28;20041;-69
2022/02/03 10:24:16;;;;;;;5.47;3.55;;;10.10;99.90;;;;;;5029930;28;20044;-71
2022/02/03 10:26:46;;;;;;;6.60;3.60;;;9.70;99.90;;;;;;5026182;28;20058;-68
2022/02/03 10:29:40;;;;;;;10.07;4.47;;;9.70;99.90;;;;;;5028286;28;20116;-70
2022/02/03 10:32:09;;;;;;;7.38;4.90;;;9.60;99.90;;;;;;5032637;28;20026;-70
2022/02/03 10:34:44;;;;;;;4.43;3.55;;;9.70;99.90;;;;;;5032710;28;20029;-70
2022/02/03 10:37:27;;;;;;;7.78;3.95;;;9.50;99.90;;;;;;5031216;28;20071;-68
2022/02/03 11:04:11;;;;;;;3.13;2.40;;;9.30;99.90;;;;;;5034186;28;20108;-69
2022/02/03 11:09:14;;;;;;;5.22;2.65;;;9.20;99.90;;;;;;5021669;28;20053;-68
2022/02/03 11:11:45;;;;;;;7.47;3.83;;;9.20;99.90;;;;;;5025748;28;20047;-68
2022/02/03 11:14:13;;;;;;;6.72;3.22;;;9.30;99.90;;;;;;5024436;28;20067;-70
2022/02/03 11:16:40;;;;;;;3.72;2.45;;;9.40;99.90;;;;;;5033808;28;20041;-69
2022/02/03 11:19:11;;;;;;;3.97;2.40;;;9.50;99.90;;;;;;5025628;28;20048;-70
2022/02/03 11:21:37;;;;;;;3.67;2.53;;;9.30;99.90;;;;;;5025935;28;20395;-68
2022/02/03 11:24:10;;;;;;;5.40;2.28;;;9.30;99.90;;;;;;5023267;28;20535;-76
2022/02/03 11:45:43;;;;;;;6.32;3.10;;;9.50;99.90;;;;;;5016859;28;20435;-71
2022/02/03 11:51:12;;;;;;;3.83;2.58;;;9.50;99.90;;;;;;5030465;28;20052;-69
2022/02/03 12:11:24;;;;;;;5.57;2.95;;;9.40;99.90;;;;;;5036240;28;20040;-71
2022/02/03 12:17:16;;;;;;;8.38;3.13;;;9.40;99.90;;;;;;5052079;28;20168;-73
2022/02/03 12:19:57;;;;;;;5.93;3.15;;;9.40;99.90;;;;;;5041325;28;20021;-71
2022/02/03 12:25:29;;;;;;;4.75;2.60;;;9.50;99.90;;;;;;5033227;28;20453;-68
2022/02/03 12:28:18;;;;;;;2.75;1.98;;;9.60;99.90;;;;;;5033893;28;20037;-68
2022/02/03 12:31:41;;;;;;;2.75;1.60;;;9.50;99.90;;;;;;5037396;28;20033;-69
2022/02/03 12:39:07;;;;;;;5.68;1.60;;;9.70;99.90;;;;;;5035114;28;20113;-75
2022/02/03 12:41:45;;;;;;;1.40;1.30;;;9.70;99.90;;;;;;5037466;28;20077;-72
2022/02/03 12:44:25;;;;;;;3.72;1.33;;;9.80;99.90;;;;;;5037982;28;20095;-73
2022/02/03 12:46:51;;;;;;;1.75;1.27;;;9.70;99.90;;;;;;5055496;28;20033;-71
2022/02/03 12:49:20;;;;;;;6.15;1.65;;;9.70;99.90;;;;;;5042155;28;20121;-69
2022/02/03 12:51:47;;;;;;;2.97;1.60;;;9.60;99.90;;;;;;5034079;28;20039;-71
2022/02/03 12:54:15;;;;;;;6.78;1.33;;;9.70;99.90;;;;;;5035104;28;20034;-68
2022/02/03 12:56:42;;;;;;;1.83;1.10;;;9.70;99.90;;;;;;5033818;28;20029;-71
2022/02/03 12:59:11;;;;;;;4.88;1.20;;;9.70;99.90;;;;;;5036341;28;20033;-71
2022/02/03 13:01:39;;;;;;;10.38;2.15;;;9.50;99.90;;;;;;5037333;28;20030;-68
2022/02/03 13:04:24;;;;;;;5.22;1.45;;;11.20;99.90;;;;;;5035912;28;20108;-70
2022/02/03 13:07:01;;;;;;;2.33;1.00;;;11.20;99.90;;;;;;5032887;28;20583;-70
2022/02/03 13:09:35;;;;;;;1.67;0.90;;;10.20;99.90;;;;;;5034464;28;20029;-69
2022/02/03 13:12:19;;;;;;;3.45;1.45;;;9.90;99.90;;;;;;5023074;28;20107;-70
2022/02/03 13:14:53;;;;;;;5.63;0.90;;;9.90;99.90;;;;;;5030309;28;20026;-71
2022/02/03 13:17:25;;;;;;;3.72;1.45;;;9.80;99.90;;;;;;5034333;28;20052;-69
2022/02/03 13:20:11;;;;;;;3.35;1.00;;;9.90;99.90;;;;;;5032923;28;20521;-69
2022/02/03 13:22:47;;;;;;;5.10;1.50;;;9.80;99.90;;;;;;5033789;28;20050;-70
2022/02/03 13:28:03;;;;;;;2.78;1.48;;;9.70;99.90;;;;;;5034044;28;20032;-68
2022/02/03 13:30:42;;;;;;;4.00;1.10;;;9.70;99.90;;;;;;5032801;28;20051;-68
2022/02/03 13:33:14;;;;;;;2.15;1.13;;;9.70;99.90;;;;;;5031585;28;20040;-70
2022/02/03 13:35:49;;;;;;;1.30;1.00;;;9.60;99.90;;;;;;5027897;28;20379;-69
2022/02/03 13:38:25;;;;;;;1.63;0.77;;;9.70;99.90;;;;;;5032576;28;20500;-72
2022/02/03 13:41:04;;;;;;;6.50;3.30;;;9.70;99.90;;;;;;5034075;28;20030;-68
2022/02/03 13:43:38;;;;;;;4.32;2.53;;;9.60;99.90;;;;;;5033093;28;20084;-70
2022/02/03 13:46:05;;;;;;;8.02;2.95;;;9.80;99.90;;;;;;5029819;28;20505;-71
2022/02/03 13:48:30;;;;;;;1.75;1.08;;;9.70;99.90;;;;;;5029960;28;20022;-71
2022/02/03 13:51:00;;;;;;;4.03;0.90;;;9.80;99.90;;;;;;5027042;28;20033;-70
2022/02/03 13:53:36;;;;;;;1.15;1.05;;;9.80;99.90;;;;;;5027303;28;20033;-74
2022/02/03 14:21:18;;;;;;;1.88;1.02;;;10.00;99.90;;;;;;5020828;28;20388;-71
2022/02/03 14:29:10;;;;;;;4.82;1.10;;;10.00;99.90;;;;;;5023055;28;20458;-69
2022/02/03 14:31:36;;;;;;;5.30;1.33;;;9.90;99.90;;;;;;5017508;28;20030;-70
2022/02/03 14:34:07;;;;;;;4.43;1.80;;;9.90;99.90;;;;;;5016340;28;20041;-73
2022/02/03 14:36:34;;;;;;;4.03;2.33;;;9.80;99.90;;;;;;5029790;28;20033;-69
2022/02/03 14:39:12;;;;;;;3.20;1.67;;;9.80;99.90;;;;;;5027857;28;20034;-71
2022/02/03 14:41:44;;;;;;;2.65;1.77;;;9.90;99.90;;;;;;5028269;28;20414;-70
2022/02/03 14:44:09;;;;;;;2.58;1.77;;;9.80;99.90;;;;;;5027397;28;20041;-70
2022/02/03 14:46:35;;;;;;;4.57;1.65;;;9.80;99.90;;;;;;5025981;28;20549;-70
2022/02/03 14:49:01;;;;;;;3.33;2.05;;;9.80;99.90;;;;;;5029864;28;20034;-72
2022/02/03 14:51:40;;;;;;;3.25;1.52;;;9.90;99.90;;;;;;5029588;28;20413;-71
2022/02/03 14:59:15;;;;;;;4.40;2.42;;;9.80;99.90;;;;;;5026959;28;20064;-71
2022/02/03 15:01:41;;;;;;;4.63;1.83;;;9.70;99.90;;;;;;5035263;28;20399;-71
2022/02/03 15:04:14;;;;;;;2.55;1.85;;;9.80;99.90;;;;;;5025923;28;20052;-72
2022/02/03 15:06:44;;;;;;;7.43;2.40;;;9.70;99.90;;;;;;5029940;28;20391;-71
2022/02/03 15:11:55;;;;;;;7.45;2.58;;;9.70;99.90;;;;;;5047408;28;20056;-71
2022/02/03 15:14:20;;;;;;;3.85;2.97;;;9.70;99.90;;;;;;5034639;28;20121;-73
2022/02/03 15:16:46;;;;;;;8.82;3.17;;;9.70;99.90;;;;;;5042491;28;20077;-72
2022/02/03 15:19:12;;;;;;;7.93;3.40;;;9.60;99.90;;;;;;5020833;28;20037;-74
2022/02/03 15:21:38;;;;;;;8.20;3.40;;;9.60;99.90;;;;;;5029096;28;20068;-72
2022/02/03 15:24:05;;;;;;;7.05;4.20;;;9.60;99.90;;;;;;5042391;28;20502;-71
2022/02/03 15:26:30;;;;;;;10.80;4.47;;;9.60;99.90;;;;;;5019995;28;20057;-70
2022/02/03 15:28:57;;;;;;;9.63;4.40;;;9.60;99.90;;;;;;5047432;28;20059;-70
2022/02/03 15:31:29;;;;;;;7.70;4.55;;;9.50;99.90;;;;;;5051382;28;20040;-72
2022/02/03 15:33:56;;;;;;;5.28;4.00;;;9.50;99.90;;;;;;5039700;28;20583;-70
2022/02/03 15:36:22;;;;;;;6.00;4.00;;;9.50;99.90;;;;;;5042846;28;20025;-70
2022/02/03 15:38:49;;;;;;;6.28;4.32;;;9.40;99.90;;;;;;5040852;28;20029;-71
2022/02/03 15:41:23;;;;;;;6.05;4.07;;;9.40;99.90;;;;;;5025629;28;20028;-71
2022/02/03 15:43:51;;;;;;;11.30;4.85;;;9.40;99.90;;;;;;5038217;28;20125;-72
2022/02/03 15:46:18;;;;;;;5.88;3.83;;;9.40;99.90;;;;;;5044212;28;20037;-72
2022/02/03 15:48:56;;;;;;;4.78;3.55;;;9.40;99.90;;;;;;5034039;28;20371;-71
2022/02/03 16:02:20;;;;;;;3.92;3.05;;;9.20;99.90;;;;;;5029109;28;20041;-76
2022/02/03 16:18:35;;;;;;;1.90;1.15;;;9.10;99.90;;;;;;5049689;28;20044;-71
2022/02/03 16:31:58;;;;;;;1.85;0.75;;;9.10;99.90;;;;;;5043492;28;20121;-73
2022/02/03 16:53:14;;;;;;;2.88;1.13;;;8.90;99.90;;;;;;5030335;28;20026;-71
2022/02/03 16:55:42;;;;;;;1.10;1.00;;;8.90;99.90;;;;;;5030922;28;20041;-72
2022/02/03 16:58:10;;;;;;;2.70;1.17;;;8.90;99.90;;;;;;5034145;28;20025;-73
2022/02/03 17:00:36;;;;;;;3.88;1.20;;;9.00;99.90;;;;;;5028843;28;20040;-72
2022/02/03 17:03:02;;;;;;;2.22;1.65;;;9.00;99.90;;;;;;5013741;28;20028;-72
2022/02/03 17:05:29;;;;;;;1.45;1.10;;;9.00;99.90;;;;;;5031049;28;20380;-76
2022/02/03 17:07:55;;;;;;;1.48;1.10;;;9.00;99.90;;;;;;5036787;28;20030;-72
2022/02/03 17:10:21;;;;;;;1.27;1.13;;;9.00;99.90;;;;;;5043382;28;20033;-74
2022/02/03 17:12:47;;;;;;;1.50;1.02;;;9.00;99.90;;;;;;5024527;28;20470;-72
2022/02/03 17:15:13;;;;;;;1.45;0.70;;;9.00;99.90;;;;;;5057951;28;20029;-72
2022/02/03 17:17:38;;;;;;;2.05;1.10;;;9.00;99.90;;;;;;5053326;28;20040;-70
2022/02/03 17:20:05;;;;;;;1.42;0.75;;;9.00;99.90;;;;;;5050018;28;20024;-70
2022/02/03 17:22:36;;;;;;;0.80;0.57;;;8.90;99.90;;;;;;5024698;28;20072;-73
2022/02/03 17:25:08;;;;;;;2.22;0.98;;;8.90;99.90;;;;;;5027474;28;20399;-70
2022/02/03 17:27:44;;;;;;;3.20;1.10;;;8.80;99.90;;;;;;5027599;28;20074;-71
2022/02/03 17:30:19;;;;;;;1.88;0.85;;;8.90;99.90;;;;;;5036336;28;20021;-73
2022/02/03 18:30:22;;;;;;;2.65;1.35;;;10.10;99.90;;;;;;5043287;28;20087;-72
2022/02/03 18:51:09;;;;;;;2.65;2.00;;;9.20;99.90;;;;;;5041395;28;20079;-77
2022/02/03 19:23:25;;;;;;;3.58;2.80;;;9.10;99.90;;;;;;5031160;28;20061;-74
2022/02/03 20:06:01;;;;;;;5.63;2.97;;;9.00;99.90;;;;;;5057511;28;20093;-71
2022/02/03 20:08:38;;;;;;;6.30;2.85;;;9.00;99.90;;;;;;5034570;28;20443;-75
2022/02/03 20:11:03;;;;;;;4.22;2.50;;;9.10;99.90;;;;;;5036972;28;20430;-75
2022/02/03 20:13:29;;;;;;;3.33;2.85;;;9.10;99.90;;;;;;5036180;28;20029;-76
2022/02/03 20:15:55;;;;;;;4.57;2.45;;;9.10;99.90;;;;;;5038426;28;20033;-73
2022/02/03 20:18:22;;;;;;;5.05;2.92;;;9.10;99.90;;;;;;5037685;28;20109;-73
2022/02/03 20:20:48;;;;;;;3.83;2.60;;;9.10;99.90;;;;;;5034313;28;20026;-73
2022/02/03 20:23:18;;;;;;;4.63;3.10;;;9.20;99.90;;;;;;5037615;28;20033;-73
2022/02/03 20:25:51;;;;;;;4.20;3.00;;;9.20;99.90;;;;;;5038867;28;20072;-74
2022/02/03 20:28:17;;;;;;;4.95;3.50;;;9.10;99.90;;;;;;5037693;28;20022;-73
2022/02/03 20:30:43;;;;;;;5.60;3.20;;;9.00;99.90;;;;;;5033440;28;20025;-74
2022/02/03 20:33:08;;;;;;;5.22;3.22;;;9.00;99.90;;;;;;5020606;28;20032;-75
2022/02/03 20:35:36;;;;;;;5.55;3.60;;;9.00;99.90;;;;;;5018440;28;20029;-74
2022/02/03 20:38:02;;;;;;;5.10;3.65;;;9.00;99.90;;;;;;5032264;28;20060;-74
2022/02/03 20:40:28;;;;;;;4.60;3.22;;;9.00;99.90;;;;;;5035151;28;20029;-72
2022/02/03 20:42:53;;;;;;;5.38;3.85;;;8.90;99.90;;;;;;5035305;28;20095;-73
2022/02/03 20:45:19;;;;;;;6.50;3.50;;;8.90;99.90;;;;;;5034386;28;20479;-75
2022/02/03 20:47:45;;;;;;;5.60;3.95;;;8.90;99.90;;;;;;5036183;28;20221;-72
2022/02/03 20:50:17;;;;;;;4.25;3.10;;;8.90;99.90;;;;;;5035518;28;20030;-72
2022/02/03 20:52:42;;;;;;;8.27;4.50;;;8.90;99.90;;;;;;5033333;28;20472;-74
2022/02/03 20:55:08;;;;;;;6.20;3.72;;;9.00;99.90;;;;;;5035916;28;20040;-73
2022/02/03 20:57:34;;;;;;;6.25;3.85;;;9.00;99.90;;;;;;5034647;28;20539;-73
2022/02/03 21:00:15;;;;;;;6.95;3.92;;;8.80;99.90;;;;;;5035527;28;20025;-75
2022/02/03 21:05:15;;;;;;;;;;;8.80;99.90;;;;;;5035296;28;20168;-73
2022/02/03 21:07:42;;;;;;;8.75;3.58;;;8.70;99.90;;;;;;5033206;28;19905;-73
2022/02/03 21:10:12;;;;;;;7.28;3.97;;;8.60;99.90;;;;;;5034719;28;20028;-72
2022/02/03 21:12:38;;;;;;;5.78;3.95;;;8.70;99.90;;;;;;5034376;28;20018;-72
2022/02/03 21:15:07;;;;;;;5.47;3.72;;;8.70;99.90;;;;;;5031037;28;20061;-74
2022/02/03 21:17:33;;;;;;;6.85;3.90;;;8.70;99.90;;;;;;5030473;28;20454;-73
2022/02/03 21:20:10;;;;;;;6.97;4.22;;;8.70;99.90;;;;;;5030777;28;20463;-73
2022/02/03 21:22:37;;;;;;;5.43;3.55;;;8.70;99.90;;;;;;5026490;28;20057;-74
2022/02/03 21:27:45;;;;;;;6.63;4.38;;;8.70;99.90;;;;;;5032916;28;20037;-72
2022/02/03 21:30:12;;;;;;;10.95;4.80;;;8.80;99.90;;;;;;5030146;28;20037;-71
2022/02/03 21:32:38;;;;;;;5.63;4.05;;;8.70;99.90;;;;;;5026160;28;20501;-73
2022/02/03 21:35:06;;;;;;;6.45;3.72;;;8.80;99.90;;;;;;5028479;28;20034;-72
2022/02/03 21:37:32;;;;;;;7.20;3.63;;;8.70;99.90;;;;;;5028050;28;20068;-73
2022/02/03 21:39:59;;;;;;;4.60;3.22;;;8.70;99.90;;;;;;5030452;28;20099;-70
2022/02/03 21:42:24;;;;;;;5.15;4.03;;;8.80;99.90;;;;;;5028897;28;20123;-73
2022/02/03 21:44:50;;;;;;;8.82;4.25;;;8.70;99.90;;;;;;5029120;28;20056;-72
2022/02/03 21:47:16;;;;;;;5.57;3.55;;;8.80;99.90;;;;;;5031337;28;20048;-72
2022/02/03 21:49:41;;;;;;;6.93;3.80;;;8.80;99.90;;;;;;5030951;28;20064;-74
2022/02/03 21:52:07;;;;;;;5.55;3.83;;;8.80;99.90;;;;;;5031418;28;20076;-74
2022/02/03 21:54:36;;;;;;;5.75;4.18;;;8.80;99.90;;;;;;5030537;28;20036;-73
2022/02/03 21:57:03;;;;;;;5.47;3.70;;;8.80;99.90;;;;;;5030923;28;20029;-72
2022/02/03 21:59:29;;;;;;;7.07;4.65;;;8.70;99.90;;;;;;5028887;28;20505;-73
2022/02/03 22:01:54;;;;;;;5.18;4.07;;;8.80;99.90;;;;;;5030742;28;20048;-75
2022/02/03 22:04:20;;;;;;;9.85;4.95;;;8.80;99.90;;;;;;5032503;28;20034;-73
2022/02/03 22:06:46;;;;;;;6.85;4.38;;;8.80;99.90;;;;;;5031924;28;20041;-74
2022/02/03 22:09:12;;;;;;;5.93;4.75;;;8.70;99.90;;;;;;5032018;28;20496;-73
2022/02/03 22:11:39;;;;;;;6.03;4.25;;;8.70;99.90;;;;;;5031939;28;20037;-71
2022/02/03 22:14:05;;;;;;;6.43;4.13;;;8.70;99.90;;;;;;5031282;28;20021;-72
2022/02/03 22:16:33;;;;;;;7.32;5.15;;;8.60;99.90;;;;;;5028588;28;20040;-72
2022/02/03 22:19:00;;;;;;;5.80;4.82;;;8.70;99.90;;;;;;5030950;28;20163;-73
2022/02/03 22:21:40;;;;;;;6.45;5.03;;;8.70;99.90;;;;;;5028452;28;20049;-75
2022/02/03 22:48:02;;;;;;;6.93;5.03;;;8.40;99.90;;;;;;5030618;28;20025;-73
2022/02/03 22:50:28;;;;;;;6.22;5.18;;;8.40;99.90;;;;;;5033664;28;20029;-74
2022/02/03 22:52:53;;;;;;;8.77;5.63;;;8.50;99.90;;;;;;5032210;28;20120;-74
2022/02/03 22:55:19;;;;;;;9.52;5.78;;;8.30;99.90;;;;;;5030979;28;20586;-72
2022/02/03 22:57:57;;;;;;;7.25;5.25;;;8.30;99.90;;;;;;5029092;28;20193;-73
2022/02/03 23:01:02;;;;;;;6.38;4.95;;;8.30;99.90;;;;;;5029014;28;20559;-73
2022/02/03 23:03:29;;;;;;;7.10;5.05;;;8.20;99.90;;;;;;5027499;28;20516;-74
2022/02/03 23:05:55;;;;;;;7.32;5.43;;;8.20;99.90;;;;;;5028402;28;20041;-73
2022/02/03 23:08:29;;;;;;;7.05;5.38;;;8.20;99.90;;;;;;5029992;28;20048;-73
2022/02/03 23:11:09;;;;;;;10.07;5.80;;;8.20;99.90;;;;;;5031853;28;20036;-74
2022/02/03 23:14:24;;;;;;;6.53;5.00;;;8.30;99.90;;;;;;5031857;28;20025;-74
2022/02/03 23:23:59;;;;;;;6.80;4.80;;;8.20;99.90;;;;;;5031369;28;20072;-73
2022/02/03 23:26:28;;;;;;;6.88;5.65;;;8.20;99.90;;;;;;5030198;28;20467;-72
2022/02/03 23:29:01;;;;;;;9.23;5.57;;;8.20;99.90;;;;;;5029426;28;20025;-73
2022/02/03 23:31:35;;;;;;;9.18;6.18;;;8.30;99.90;;;;;;5028186;28;20034;-73
2022/02/03 23:34:01;;;;;;;7.72;6.00;;;8.20;99.90;;;;;;5029435;28;20365;-72
2022/02/03 23:36:27;;;;;;;8.98;5.20;;;8.20;99.90;;;;;;5028611;28;20036;-74
2022/02/03 23:39:11;;;;;;;7.30;5.03;;;8.30;99.90;;;;;;5030089;28;20060;-72
